createdAt,value
2022-09-03T00:02:07.940Z,17.60
2022-09-03T00:05:05.341Z,17.60
2022-09-03T00:07:42.685Z,17.60
2022-09-03T00:10:22.579Z,17.60
2022-09-03T00:12:52.515Z,17.60
2022-09-03T00:15:22.192Z,17.60
2022-09-03T00:18:04.691Z,17.60
2022-09-03T00:20:43.601Z,17.60
2022-09-03T00:23:20.557Z,17.60
2022-09-03T00:25:54.601Z,17.60
2022-09-03T00:28:33.046Z,17.60
2022-09-03T00:31:12.641Z,17.60
2022-09-03T00:33:41.763Z,17.60
2022-09-03T00:36:34.846Z,17.50
2022-09-03T00:39:01.779Z,17.50
2022-09-03T00:41:41.409Z,17.50
2022-09-03T00:44:45.485Z,17.50
2022-09-03T00:47:39.274Z,17.50
2022-09-03T00:50:36.867Z,17.50
2022-09-03T00:53:28.509Z,17.50
2022-09-03T00:56:22.500Z,17.50
2022-09-03T00:59:10.445Z,17.50
2022-09-03T01:02:02.863Z,17.50
2022-09-03T01:04:49.771Z,17.50
2022-09-03T01:07:41.186Z,17.50
2022-09-03T01:10:14.222Z,17.50
2022-09-03T01:12:58.297Z,17.60
2022-09-03T01:16:02.973Z,17.60
2022-09-03T01:19:04.338Z,17.60
2022-09-03T01:22:38.400Z,17.60
2022-09-03T01:25:39.102Z,17.60
2022-09-03T01:28:14.790Z,17.60
2022-09-03T01:30:49.310Z,17.60
2022-09-03T01:33:58.579Z,17.60
2022-09-03T01:36:49.804Z,17.60
2022-09-03T01:40:07.659Z,17.60
2022-09-03T01:43:14.756Z,17.60
2022-09-03T01:46:02.472Z,17.60
2022-09-03T01:49:24.872Z,17.60
2022-09-03T01:52:24.513Z,17.60
2022-09-03T01:55:25.536Z,17.60
2022-09-03T01:58:21.869Z,17.60
2022-09-03T02:01:00.720Z,17.60
2022-09-03T02:03:40.757Z,17.50
2022-09-03T02:06:11.002Z,17.50
2022-09-03T02:08:38.700Z,17.50
2022-09-03T02:11:09.132Z,17.40
2022-09-03T02:13:42.428Z,17.40
2022-09-03T02:16:20.332Z,17.40
2022-09-03T02:18:52.056Z,17.40
2022-09-03T02:21:22.359Z,17.40
2022-09-03T02:23:50.148Z,17.40
2022-09-03T02:26:22.365Z,17.40
2022-09-03T02:28:51.081Z,17.40
2022-09-03T02:31:18.211Z,17.40
2022-09-03T02:33:47.873Z,17.40
2022-09-03T02:36:19.796Z,17.40
2022-09-03T02:38:47.680Z,17.40
2022-09-03T02:41:15.091Z,17.40
2022-09-03T02:43:50.734Z,17.40
2022-09-03T02:46:23.478Z,17.40
2022-09-03T02:48:50.468Z,17.30
2022-09-03T02:51:17.375Z,17.30
2022-09-03T02:53:44.474Z,17.30
2022-09-03T02:56:12.288Z,17.20
2022-09-03T02:58:39.214Z,17.20
2022-09-03T03:01:06.424Z,17.20
2022-09-03T03:03:33.465Z,17.10
2022-09-03T03:06:05.632Z,17.10
2022-09-03T03:08:34.737Z,17.00
2022-09-03T03:11:02.059Z,16.90
2022-09-03T03:13:30.756Z,16.90
2022-09-03T03:16:03.990Z,16.90
2022-09-03T03:18:30.956Z,16.80
2022-09-03T03:20:58.171Z,16.70
2022-09-03T03:23:25.128Z,16.60
2022-09-03T03:25:52.109Z,16.60
2022-09-03T03:28:20.589Z,16.50
2022-09-03T03:30:48.921Z,16.40
2022-09-03T03:33:16.000Z,16.40
2022-09-03T03:35:43.017Z,16.30
2022-09-03T03:38:10.221Z,16.30
2022-09-03T03:40:39.304Z,16.20
2022-09-03T03:43:06.304Z,16.20
2022-09-03T03:45:33.369Z,16.10
2022-09-03T03:48:00.331Z,16.10
2022-09-03T03:50:27.966Z,16.00
2022-09-03T03:52:54.933Z,16.00
2022-09-03T03:55:22.428Z,15.90
2022-09-03T03:57:49.545Z,15.80
2022-09-03T04:00:16.784Z,15.80
2022-09-03T04:02:43.942Z,15.80
2022-09-03T04:05:10.931Z,15.70
2022-09-03T04:07:38.455Z,15.70
2022-09-03T04:10:06.137Z,15.70
2022-09-03T04:12:33.215Z,15.70
2022-09-03T04:15:00.147Z,15.60
2022-09-03T04:17:28.354Z,15.60
2022-09-03T04:19:55.255Z,15.60
2022-09-03T04:22:22.288Z,15.50
2022-09-03T04:24:49.187Z,15.50
2022-09-03T04:27:16.156Z,15.50
2022-09-03T04:29:43.076Z,15.50
2022-09-03T04:32:29.072Z,15.50
2022-09-03T04:34:56.011Z,15.50
2022-09-03T04:37:22.948Z,15.50
2022-09-03T04:39:49.924Z,15.50
2022-09-03T04:42:16.908Z,15.50
2022-09-03T04:44:43.822Z,15.50
2022-09-03T04:47:10.711Z,15.50
2022-09-03T04:49:37.636Z,15.40
2022-09-03T04:52:04.539Z,15.40
2022-09-03T04:54:31.614Z,15.50
2022-09-03T04:56:58.528Z,15.40
2022-09-03T04:59:25.464Z,15.40
2022-09-03T05:01:52.824Z,15.40
2022-09-03T05:04:19.924Z,15.40
2022-09-03T05:06:46.830Z,15.40
2022-09-03T05:09:13.893Z,15.40
2022-09-03T05:11:40.878Z,15.40
2022-09-03T05:14:11.745Z,15.40
2022-09-03T05:16:39.185Z,15.50
2022-09-03T05:19:06.181Z,15.50
2022-09-03T05:21:33.081Z,15.40
2022-09-03T05:24:01.702Z,15.50
2022-09-03T05:26:32.944Z,15.50
2022-09-03T05:29:07.563Z,15.50
2022-09-03T05:31:39.451Z,15.50
2022-09-03T05:34:06.855Z,15.50
2022-09-03T05:36:36.715Z,15.60
2022-09-03T05:39:05.675Z,15.60
2022-09-03T05:41:34.151Z,15.60
2022-09-03T05:44:01.294Z,15.60
2022-09-03T05:46:37.486Z,15.70
2022-09-03T05:49:07.027Z,15.70
2022-09-03T05:51:36.512Z,15.80
2022-09-03T05:54:03.901Z,15.80
2022-09-03T05:56:33.471Z,15.80
2022-09-03T05:59:05.659Z,15.90
2022-09-03T06:01:45.743Z,15.90
2022-09-03T06:04:17.899Z,16.00
2022-09-03T06:06:46.958Z,16.10
2022-09-03T06:09:18.060Z,16.10
2022-09-03T06:11:46.271Z,16.20
2022-09-03T06:14:14.651Z,16.30
2022-09-03T06:16:45.083Z,16.30
2022-09-03T06:19:14.204Z,16.40
2022-09-03T06:21:43.353Z,16.50
2022-09-03T06:24:13.300Z,16.60
2022-09-03T06:26:42.953Z,16.70
2022-09-03T06:29:10.606Z,16.80
2022-09-03T06:31:37.826Z,16.90
2022-09-03T06:34:05.994Z,16.90
2022-09-03T06:36:33.616Z,17.00
2022-09-03T06:39:01.046Z,17.10
2022-09-03T06:41:33.030Z,17.20
2022-09-03T06:44:06.445Z,17.40
2022-09-03T06:46:36.346Z,17.50
2022-09-03T06:49:03.537Z,17.60
2022-09-03T06:51:33.183Z,17.60
2022-09-03T06:54:09.464Z,17.80
2022-09-03T06:56:40.447Z,17.90
2022-09-03T06:59:11.551Z,18.00
2022-09-03T07:01:40.896Z,18.10
2022-09-03T07:04:12.882Z,18.20
2022-09-03T07:06:42.379Z,18.20
2022-09-03T07:09:11.683Z,18.40
2022-09-03T07:11:46.719Z,18.40
2022-09-03T07:14:14.927Z,18.60
2022-09-03T07:16:43.071Z,18.60
2022-09-03T07:19:10.193Z,18.80
2022-09-03T07:21:37.838Z,18.80
2022-09-03T07:24:06.058Z,19.00
2022-09-03T07:26:39.299Z,19.00
2022-09-03T07:29:07.898Z,19.20
2022-09-03T07:31:41.030Z,19.20
2022-09-03T07:34:11.556Z,19.30
2022-09-03T07:36:46.901Z,19.50
2022-09-03T07:39:17.049Z,19.60
2022-09-03T07:41:48.145Z,19.60
2022-09-03T07:44:19.664Z,19.70
2022-09-03T07:46:47.919Z,19.80
2022-09-03T07:49:15.286Z,19.80
2022-09-03T07:51:42.188Z,19.90
2022-09-03T07:54:11.371Z,20.00
2022-09-03T07:56:40.184Z,20.00
2022-09-03T07:59:08.275Z,20.10
2022-09-03T08:01:37.001Z,20.10
2022-09-03T08:04:06.628Z,20.20
2022-09-03T08:06:37.614Z,20.20
2022-09-03T08:09:09.632Z,20.20
2022-09-03T08:11:39.643Z,20.30
2022-09-03T08:14:10.028Z,20.40
2022-09-03T08:16:48.071Z,20.50
2022-09-03T08:19:17.120Z,20.60
2022-09-03T08:21:44.659Z,20.70
2022-09-03T08:24:15.474Z,20.70
2022-09-03T08:26:47.674Z,20.80
2022-09-03T08:29:18.309Z,20.90
2022-09-03T08:31:45.385Z,21.00
2022-09-03T08:34:14.498Z,21.10
2022-09-03T08:36:41.623Z,21.10
2022-09-03T08:39:11.078Z,21.00
2022-09-03T08:41:53.063Z,21.10
2022-09-03T08:44:31.967Z,21.10
2022-09-03T08:47:38.836Z,21.10
2022-09-03T08:50:22.803Z,21.10
2022-09-03T08:52:55.288Z,21.20
2022-09-03T08:56:14.671Z,21.30
2022-09-03T08:58:44.999Z,21.40
2022-09-03T09:01:44.054Z,21.50
2022-09-03T09:04:29.737Z,21.60
2022-09-03T09:07:16.935Z,21.70
2022-09-03T09:10:16.676Z,21.80
2022-09-03T09:13:20.262Z,21.80
2022-09-03T09:16:08.826Z,21.80
2022-09-03T09:18:43.188Z,21.90
2022-09-03T09:21:21.949Z,22.00
2022-09-03T09:23:51.966Z,22.00
2022-09-03T09:26:21.885Z,22.10
2022-09-03T09:29:00.638Z,22.20
2022-09-03T09:31:30.930Z,22.30
2022-09-03T09:34:06.995Z,22.40
2022-09-03T09:36:57.206Z,22.50
2022-09-03T09:39:24.240Z,22.60
2022-09-03T09:42:21.922Z,22.60
2022-09-03T09:44:48.877Z,22.70
2022-09-03T09:47:25.872Z,22.70
2022-09-03T09:50:05.013Z,22.80
2022-09-03T09:52:32.463Z,22.80
2022-09-03T09:55:18.146Z,22.80
2022-09-03T09:57:45.433Z,22.90
2022-09-03T10:00:16.750Z,22.90
2022-09-03T10:02:54.355Z,22.90
2022-09-03T10:05:28.414Z,23.00
2022-09-03T10:07:57.319Z,23.10
2022-09-03T10:10:25.597Z,23.10
2022-09-03T10:13:01.648Z,23.10
2022-09-03T10:15:46.592Z,23.20
2022-09-03T10:18:38.013Z,23.20
2022-09-03T10:21:16.105Z,23.30
2022-09-03T10:23:58.762Z,23.30
2022-09-03T10:26:33.144Z,23.30
2022-09-03T10:29:05.745Z,23.30
2022-09-03T10:32:00.716Z,23.40
2022-09-03T10:34:53.176Z,23.50
2022-09-03T10:37:34.375Z,23.60
2022-09-03T10:40:42.275Z,23.60
2022-09-03T10:43:51.954Z,23.70
2022-09-03T10:46:27.521Z,23.80
2022-09-03T10:49:15.066Z,23.90
2022-09-03T10:52:07.043Z,23.90
2022-09-03T10:55:31.504Z,23.90
2022-09-03T10:58:38.093Z,23.90
2022-09-03T11:01:25.032Z,24.00
2022-09-03T11:04:15.199Z,24.00
2022-09-03T11:06:53.540Z,24.00
2022-09-03T11:09:29.231Z,24.00
2022-09-03T11:12:03.776Z,24.10
2022-09-03T11:14:40.249Z,24.10
2022-09-03T11:17:17.821Z,24.10
2022-09-03T11:19:52.423Z,24.20
2022-09-03T11:22:23.110Z,24.40
2022-09-03T11:25:00.809Z,24.50
2022-09-03T11:28:01.129Z,24.60
2022-09-03T11:30:58.982Z,24.70
2022-09-03T11:33:28.324Z,24.80
2022-09-03T11:36:01.424Z,24.90
2022-09-03T11:38:32.042Z,24.90
2022-09-03T11:41:35.756Z,25.00
2022-09-03T11:44:20.451Z,25.00
2022-09-03T11:46:58.858Z,25.10
2022-09-03T11:49:30.804Z,25.20
2022-09-03T11:52:04.529Z,25.10
2022-09-03T11:54:45.112Z,25.10
2022-09-03T11:57:23.712Z,25.20
2022-09-03T11:59:50.764Z,25.10
2022-09-03T12:02:28.943Z,25.20
2022-09-03T12:05:26.532Z,25.20
2022-09-03T12:08:16.590Z,25.20
2022-09-03T12:10:59.348Z,25.20
2022-09-03T12:13:31.886Z,25.20
2022-09-03T12:16:29.921Z,25.20
2022-09-03T12:19:06.127Z,25.10
2022-09-03T12:21:41.072Z,25.10
2022-09-03T12:24:13.586Z,25.10
2022-09-03T12:26:43.314Z,25.10
2022-09-03T12:29:29.066Z,25.10
2022-09-03T12:32:11.975Z,25.10
2022-09-03T12:34:38.874Z,25.20
2022-09-03T12:38:04.195Z,25.20
2022-09-03T12:40:24.337Z,25.20
2022-09-03T12:42:51.724Z,25.20
2022-09-03T12:45:25.623Z,25.20
2022-09-03T12:47:53.571Z,25.30
2022-09-03T12:50:24.175Z,25.40
2022-09-03T12:52:54.260Z,25.40
2022-09-03T12:55:53.925Z,25.50
2022-09-03T12:58:32.052Z,25.50
2022-09-03T13:01:42.000Z,25.60
2022-09-03T13:04:19.384Z,25.60
2022-09-03T13:06:56.806Z,25.50
2022-09-03T13:09:26.473Z,25.50
2022-09-03T13:11:55.438Z,25.50
2022-09-03T13:14:22.970Z,25.50
2022-09-03T13:17:36.750Z,25.50
2022-09-03T13:20:35.551Z,25.50
2022-09-03T13:23:36.311Z,25.50
2022-09-03T13:26:21.756Z,25.50
2022-09-03T13:29:25.700Z,25.50
2022-09-03T13:32:08.488Z,25.50
2022-09-03T13:34:42.260Z,25.50
2022-09-03T13:37:39.094Z,25.50
2022-09-03T13:40:38.668Z,25.50
2022-09-03T13:43:45.774Z,25.40
2022-09-03T13:46:31.409Z,25.50
2022-09-03T13:49:31.739Z,25.40
2022-09-03T13:52:07.740Z,25.50
2022-09-03T13:54:49.136Z,25.50
2022-09-03T13:57:29.389Z,25.50
2022-09-03T14:00:08.462Z,25.50
2022-09-03T14:02:58.025Z,25.50
2022-09-03T14:06:02.230Z,25.50
2022-09-03T14:08:48.343Z,25.50
2022-09-03T14:11:49.480Z,25.50
2022-09-03T14:14:37.646Z,25.50
2022-09-03T14:17:15.412Z,25.50
2022-09-03T14:20:07.082Z,25.50
2022-09-03T14:23:07.407Z,25.50
2022-09-03T14:25:34.330Z,25.50
2022-09-03T14:28:27.449Z,25.50
2022-09-03T14:31:52.293Z,25.50
2022-09-03T14:34:51.939Z,25.50
2022-09-03T14:37:49.455Z,25.50
2022-09-03T14:40:40.779Z,25.50
2022-09-03T14:43:51.550Z,25.40
2022-09-03T14:46:58.467Z,25.50
2022-09-03T14:50:01.636Z,25.50
2022-09-03T14:52:59.755Z,25.50
2022-09-03T14:55:48.764Z,25.50
2022-09-03T14:58:58.790Z,25.50
2022-09-03T15:01:37.625Z,25.40
2022-09-03T15:04:24.330Z,25.40
2022-09-03T15:07:34.192Z,25.50
2022-09-03T15:10:24.770Z,25.50
2022-09-03T15:13:22.066Z,25.50
2022-09-03T15:16:09.243Z,25.50
2022-09-03T15:19:36.664Z,25.50
2022-09-03T15:22:44.751Z,25.50
2022-09-03T15:25:37.224Z,25.40
2022-09-03T15:28:45.236Z,25.30
2022-09-03T15:31:57.948Z,25.20
2022-09-03T15:34:43.369Z,25.20
2022-09-03T15:37:23.394Z,25.10
2022-09-03T15:40:03.651Z,25.00
2022-09-03T15:42:31.332Z,25.00
2022-09-03T15:45:08.956Z,25.00
2022-09-03T15:47:54.368Z,25.00
2022-09-03T15:50:52.696Z,25.10
2022-09-03T15:53:52.712Z,25.10
2022-09-03T15:56:38.032Z,25.10
2022-09-03T15:59:15.084Z,25.10
2022-09-03T16:01:57.732Z,25.10
2022-09-03T16:04:58.888Z,25.00
2022-09-03T16:07:38.012Z,25.00
2022-09-03T16:10:29.969Z,24.90
2022-09-03T16:13:15.275Z,24.90
2022-09-03T16:15:52.858Z,24.90
2022-09-03T16:18:36.946Z,24.80
2022-09-03T16:21:20.439Z,24.80
2022-09-03T16:24:23.138Z,24.80
2022-09-03T16:27:14.200Z,24.80
2022-09-03T16:29:41.660Z,24.80
2022-09-03T16:32:41.686Z,24.70
2022-09-03T16:35:26.530Z,24.60
2022-09-03T16:38:38.732Z,24.60
2022-09-03T16:41:36.992Z,24.60
2022-09-03T16:44:25.102Z,24.50
2022-09-03T16:46:54.977Z,24.50
2022-09-03T16:50:07.159Z,24.40
2022-09-03T16:52:48.055Z,24.40
2022-09-03T16:55:52.409Z,24.30
2022-09-03T16:58:49.472Z,24.20
2022-09-03T17:01:43.198Z,24.20
2022-09-03T17:04:30.135Z,24.10
2022-09-03T17:07:36.655Z,24.00
2022-09-03T17:10:48.232Z,23.90
2022-09-03T17:13:46.375Z,23.90
2022-09-03T17:16:36.141Z,23.80
2022-09-03T17:19:21.364Z,23.70
2022-09-03T17:22:23.607Z,23.60
2022-09-03T17:25:04.644Z,23.60
2022-09-03T17:27:53.584Z,23.50
2022-09-03T17:30:49.508Z,23.50
2022-09-03T17:34:00.101Z,23.40
2022-09-03T17:36:31.419Z,23.40
2022-09-03T17:39:30.855Z,23.30
2022-09-03T17:42:06.585Z,23.30
2022-09-03T17:45:15.243Z,23.20
2022-09-03T17:48:11.252Z,23.10
2022-09-03T17:50:59.283Z,23.10
2022-09-03T17:53:44.428Z,23.00
2022-09-03T17:56:35.643Z,23.00
2022-09-03T17:59:10.667Z,22.90
2022-09-03T18:01:48.439Z,22.80
2022-09-03T18:04:45.396Z,22.80
2022-09-03T18:07:50.125Z,22.70
2022-09-03T18:10:57.756Z,22.70
2022-09-03T18:13:46.116Z,22.60
2022-09-03T18:16:34.960Z,22.60
2022-09-03T18:20:07.357Z,22.60
2022-09-03T18:23:09.525Z,22.50
2022-09-03T18:25:57.872Z,22.50
2022-09-03T18:28:57.984Z,22.40
2022-09-03T18:31:43.764Z,22.40
2022-09-03T18:34:29.055Z,22.40
2022-09-03T18:37:18.854Z,22.30
2022-09-03T18:40:05.867Z,22.20
2022-09-03T18:43:02.809Z,22.20
2022-09-03T18:49:21.727Z,22.00
2022-09-03T18:52:36.354Z,22.00
2022-09-03T18:56:03.942Z,21.90
2022-09-03T18:59:12.115Z,21.90
2022-09-03T19:01:59.925Z,21.80
2022-09-03T19:05:18.814Z,21.80
2022-09-03T19:08:16.313Z,21.80
2022-09-03T19:11:20.304Z,21.70
2022-09-03T19:14:06.299Z,21.60
2022-09-03T19:17:13.467Z,21.60
2022-09-03T19:20:42.819Z,21.50
2022-09-03T19:23:29.204Z,21.50
2022-09-03T19:26:30.380Z,21.40
2022-09-03T19:29:22.639Z,21.40
2022-09-03T19:32:19.656Z,21.40
2022-09-03T19:35:33.382Z,21.40
2022-09-03T19:38:59.208Z,21.40
2022-09-03T19:42:03.581Z,21.30
2022-09-03T19:45:11.656Z,21.30
2022-09-03T19:48:45.746Z,21.30
2022-09-03T19:51:39.487Z,21.30
2022-09-03T19:54:27.324Z,21.20
2022-09-03T19:57:16.151Z,21.20
2022-09-03T20:00:06.842Z,21.10
2022-09-03T20:02:59.029Z,21.10
2022-09-03T20:05:45.416Z,21.10
2022-09-03T20:08:35.364Z,21.10
2022-09-03T20:11:05.012Z,21.10
2022-09-03T20:13:52.864Z,21.10
2022-09-03T20:16:56.980Z,21.00
2022-09-03T20:19:45.603Z,21.00
2022-09-03T20:22:29.868Z,21.00
2022-09-03T20:25:28.733Z,21.00
2022-09-03T20:28:26.140Z,21.00
2022-09-03T20:31:06.952Z,20.90
2022-09-03T20:34:11.046Z,20.90
2022-09-03T20:36:55.498Z,20.90
2022-09-03T20:40:08.282Z,20.80
2022-09-03T20:43:08.086Z,20.80
2022-09-03T20:46:22.794Z,20.80
2022-09-03T20:49:20.120Z,20.70
2022-09-03T20:51:53.226Z,20.70
2022-09-03T20:54:36.041Z,20.70
2022-09-03T20:57:27.913Z,20.70
2022-09-03T21:00:13.886Z,20.70
2022-09-03T21:03:16.016Z,20.70
2022-09-03T21:06:14.989Z,20.60
2022-09-03T21:09:33.132Z,20.60
2022-09-03T21:12:30.201Z,20.60
2022-09-03T21:15:13.067Z,20.60
2022-09-03T21:18:13.866Z,20.60
2022-09-03T21:21:05.739Z,20.50
2022-09-03T21:23:41.066Z,20.50
2022-09-03T21:26:21.208Z,20.40
2022-09-03T21:29:07.918Z,20.40
2022-09-03T21:31:53.777Z,20.40
2022-09-03T21:34:37.252Z,20.40
2022-09-03T21:37:05.986Z,20.30
2022-09-03T21:39:51.750Z,20.30
2022-09-03T21:42:43.297Z,20.30
2022-09-03T21:45:41.112Z,20.20
2022-09-03T21:48:26.306Z,20.30
2022-09-03T21:51:00.593Z,20.30
2022-09-03T21:54:05.513Z,20.20
2022-09-03T21:57:18.876Z,20.20
2022-09-03T22:00:12.137Z,20.20
2022-09-03T22:02:42.208Z,20.20
2022-09-03T22:05:09.556Z,20.10
2022-09-03T22:08:14.338Z,20.10
2022-09-03T22:10:56.903Z,20.10
2022-09-03T22:13:54.358Z,20.10
2022-09-03T22:16:30.217Z,20.10
2022-09-03T22:18:57.257Z,20.10
2022-09-03T22:21:44.284Z,20.10
2022-09-03T22:24:49.883Z,20.10
2022-09-03T22:27:18.462Z,20.10
2022-09-03T22:30:06.156Z,20.00
2022-09-03T22:33:01.787Z,20.00
2022-09-03T22:36:02.881Z,20.00
2022-09-03T22:39:20.260Z,20.00
2022-09-03T22:41:53.091Z,20.00
2022-09-03T22:44:55.260Z,19.90
2022-09-03T22:48:02.810Z,19.90
2022-09-03T22:50:57.760Z,19.90
2022-09-03T22:54:01.806Z,19.90
2022-09-03T22:56:35.301Z,19.80
2022-09-03T22:59:19.656Z,19.80
2022-09-03T23:01:58.710Z,19.80
2022-09-03T23:04:34.935Z,19.80
2022-09-03T23:07:22.576Z,19.80
2022-09-03T23:10:04.370Z,19.70
2022-09-03T23:12:48.980Z,19.70
2022-09-03T23:15:30.561Z,19.70
2022-09-03T23:18:17.615Z,19.70
2022-09-03T23:21:22.123Z,19.70
2022-09-03T23:24:07.257Z,19.70
2022-09-03T23:26:49.356Z,19.70
2022-09-03T23:29:40.755Z,19.70
2022-09-03T23:32:09.380Z,19.70
2022-09-03T23:34:40.662Z,19.70
2022-09-03T23:37:48.114Z,19.70
2022-09-03T23:40:57.688Z,19.70
2022-09-03T23:43:47.431Z,19.60
2022-09-03T23:46:38.143Z,19.60
2022-09-03T23:49:30.789Z,19.60
2022-09-03T23:52:44.686Z,19.60
2022-09-03T23:55:55.951Z,19.60
2022-09-03T23:59:04.776Z,19.60
